sensor_id;sensor_type;location;lat;lon;timestamp;temperature;humidity
11423;DHT22;5768;51.476;7.210;2022-07-23T00:02:24;19.60;28.70
11423;DHT22;5768;51.476;7.210;2022-07-23T00:05:27;19.70;33.40
11423;DHT22;5768;51.476;7.210;2022-07-23T00:08:30;19.50;32.60
11423;DHT22;5768;51.476;7.210;2022-07-23T00:11:32;19.50;83.30
11423;DHT22;5768;51.476;7.210;2022-07-23T00:14:35;19.60;81.30
11423;DHT22;5768;51.476;7.210;2022-07-23T00:17:37;19.50;38.60
11423;DHT22;5768;51.476;7.210;2022-07-23T00:20:41;19.50;29.90
11423;DHT22;5768;51.476;7.210;2022-07-23T00:23:43;19.50;29.00
11423;DHT22;5768;51.476;7.210;2022-07-23T00:26:45;19.50;28.50
11423;DHT22;5768;51.476;7.210;2022-07-23T00:29:48;19.50;29.00
11423;DHT22;5768;51.476;7.210;2022-07-23T00:32:51;19.50;29.70
11423;DHT22;5768;51.476;7.210;2022-07-23T00:35:58;19.40;28.60
11423;DHT22;5768;51.476;7.210;2022-07-23T00:39:01;19.40;27.30
11423;DHT22;5768;51.476;7.210;2022-07-23T00:42:03;19.30;27.60
11423;DHT22;5768;51.476;7.210;2022-07-23T00:45:07;19.30;29.60
11423;DHT22;5768;51.476;7.210;2022-07-23T00:48:10;19.30;29.40
11423;DHT22;5768;51.476;7.210;2022-07-23T00:51:15;19.20;28.20
11423;DHT22;5768;51.476;7.210;2022-07-23T00:54:18;19.20;29.80
11423;DHT22;5768;51.476;7.210;2022-07-23T00:57:24;19.60;29.70
11423;DHT22;5768;51.476;7.210;2022-07-23T01:00:27;19.20;35.10
11423;DHT22;5768;51.476;7.210;2022-07-23T01:03:29;19.10;36.00
11423;DHT22;5768;51.476;7.210;2022-07-23T01:06:35;19.10;38.50
11423;DHT22;5768;51.476;7.210;2022-07-23T01:09:38;19.00;33.10
11423;DHT22;5768;51.476;7.210;2022-07-23T01:12:41;19.10;33.50
11423;DHT22;5768;51.476;7.210;2022-07-23T01:15:44;19.10;31.80
11423;DHT22;5768;51.476;7.210;2022-07-23T01:18:46;19.10;39.80
11423;DHT22;5768;51.476;7.210;2022-07-23T01:21:51;19.10;37.50
11423;DHT22;5768;51.476;7.210;2022-07-23T01:24:56;19.10;83.20
11423;DHT22;5768;51.476;7.210;2022-07-23T01:27:59;19.10;81.70
11423;DHT22;5768;51.476;7.210;2022-07-23T01:31:01;19.00;81.40
11423;DHT22;5768;51.476;7.210;2022-07-23T01:34:04;19.00;81.90
11423;DHT22;5768;51.476;7.210;2022-07-23T01:37:07;19.10;39.70
11423;DHT22;5768;51.476;7.210;2022-07-23T01:40:11;19.10;32.50
11423;DHT22;5768;51.476;7.210;2022-07-23T01:43:14;19.00;38.30
11423;DHT22;5768;51.476;7.210;2022-07-23T01:46:16;18.90;81.40
11423;DHT22;5768;51.476;7.210;2022-07-23T01:49:19;18.90;81.50
11423;DHT22;5768;51.476;7.210;2022-07-23T01:52:21;18.90;33.60
11423;DHT22;5768;51.476;7.210;2022-07-23T01:55:25;18.90;81.80
11423;DHT22;5768;51.476;7.210;2022-07-23T01:58:27;19.00;83.80
11423;DHT22;5768;51.476;7.210;2022-07-23T02:01:30;18.80;84.20
11423;DHT22;5768;51.476;7.210;2022-07-23T02:04:32;18.90;83.90
11423;DHT22;5768;51.476;7.210;2022-07-23T02:07:37;19.00;84.40
11423;DHT22;5768;51.476;7.210;2022-07-23T02:10:40;18.90;84.10
11423;DHT22;5768;51.476;7.210;2022-07-23T02:13:43;18.90;83.20
11423;DHT22;5768;51.476;7.210;2022-07-23T02:16:45;19.00;86.20
11423;DHT22;5768;51.476;7.210;2022-07-23T02:19:47;18.90;85.10
11423;DHT22;5768;51.476;7.210;2022-07-23T02:22:49;19.00;84.20
11423;DHT22;5768;51.476;7.210;2022-07-23T02:25:55;18.90;85.40
11423;DHT22;5768;51.476;7.210;2022-07-23T02:28:57;18.90;85.60
11423;DHT22;5768;51.476;7.210;2022-07-23T02:32:00;18.90;86.10
11423;DHT22;5768;51.476;7.210;2022-07-23T02:35:02;18.80;88.10
11423;DHT22;5768;51.476;7.210;2022-07-23T02:38:05;18.80;86.00
11423;DHT22;5768;51.476;7.210;2022-07-23T02:41:09;18.90;86.60
11423;DHT22;5768;51.476;7.210;2022-07-23T02:44:11;18.70;86.40
11423;DHT22;5768;51.476;7.210;2022-07-23T02:47:13;18.80;86.20
11423;DHT22;5768;51.476;7.210;2022-07-23T02:50:15;18.70;85.60
11423;DHT22;5768;51.476;7.210;2022-07-23T02:53:17;18.50;87.70
11423;DHT22;5768;51.476;7.210;2022-07-23T02:56:21;18.40;89.50
11423;DHT22;5768;51.476;7.210;2022-07-23T02:59:23;18.30;90.30
11423;DHT22;5768;51.476;7.210;2022-07-23T03:02:25;18.10;91.40
11423;DHT22;5768;51.476;7.210;2022-07-23T03:05:27;18.00;92.40
11423;DHT22;5768;51.476;7.210;2022-07-23T03:08:29;18.00;92.90
11423;DHT22;5768;51.476;7.210;2022-07-23T03:11:51;18.10;94.10
11423;DHT22;5768;51.476;7.210;2022-07-23T03:14:54;18.20;92.80
11423;DHT22;5768;51.476;7.210;2022-07-23T03:17:56;18.20;91.80
11423;DHT22;5768;51.476;7.210;2022-07-23T03:20:59;18.20;91.20
11423;DHT22;5768;51.476;7.210;2022-07-23T03:24:02;18.30;90.60
11423;DHT22;5768;51.476;7.210;2022-07-23T03:27:06;18.20;92.10
11423;DHT22;5768;51.476;7.210;2022-07-23T03:30:08;18.20;90.10
11423;DHT22;5768;51.476;7.210;2022-07-23T03:33:11;18.00;90.10
11423;DHT22;5768;51.476;7.210;2022-07-23T03:36:14;18.00;91.30
11423;DHT22;5768;51.476;7.210;2022-07-23T03:39:16;17.90;90.60
11423;DHT22;5768;51.476;7.210;2022-07-23T03:42:19;17.80;92.40
11423;DHT22;5768;51.476;7.210;2022-07-23T03:45:22;17.80;91.90
11423;DHT22;5768;51.476;7.210;2022-07-23T03:48:24;17.80;91.60
11423;DHT22;5768;51.476;7.210;2022-07-23T03:51:26;17.60;92.30
11423;DHT22;5768;51.476;7.210;2022-07-23T03:54:28;17.70;94.00
11423;DHT22;5768;51.476;7.210;2022-07-23T03:57:31;17.60;94.40
11423;DHT22;5768;51.476;7.210;2022-07-23T04:00:34;17.70;92.70
11423;DHT22;5768;51.476;7.210;2022-07-23T04:03:37;17.60;93.30
11423;DHT22;5768;51.476;7.210;2022-07-23T04:06:39;17.50;93.80
11423;DHT22;5768;51.476;7.210;2022-07-23T04:09:41;17.50;94.10
11423;DHT22;5768;51.476;7.210;2022-07-23T04:12:44;17.50;93.60
11423;DHT22;5768;51.476;7.210;2022-07-23T04:15:46;17.50;95.50
11423;DHT22;5768;51.476;7.210;2022-07-23T04:18:49;17.50;95.90
11423;DHT22;5768;51.476;7.210;2022-07-23T04:21:51;17.50;96.00
11423;DHT22;5768;51.476;7.210;2022-07-23T04:24:53;17.50;96.50
11423;DHT22;5768;51.476;7.210;2022-07-23T04:27:57;17.50;96.10
11423;DHT22;5768;51.476;7.210;2022-07-23T04:30:59;17.60;95.00
11423;DHT22;5768;51.476;7.210;2022-07-23T04:34:01;17.60;95.00
11423;DHT22;5768;51.476;7.210;2022-07-23T04:37:03;17.70;94.10
11423;DHT22;5768;51.476;7.210;2022-07-23T04:40:06;17.50;94.50
11423;DHT22;5768;51.476;7.210;2022-07-23T04:43:10;17.50;96.20
11423;DHT22;5768;51.476;7.210;2022-07-23T04:46:12;17.50;95.30
11423;DHT22;5768;51.476;7.210;2022-07-23T04:49:15;17.60;95.20
11423;DHT22;5768;51.476;7.210;2022-07-23T04:52:17;17.60;92.70
11423;DHT22;5768;51.476;7.210;2022-07-23T04:55:19;17.70;92.20
11423;DHT22;5768;51.476;7.210;2022-07-23T04:58:23;17.70;92.00
11423;DHT22;5768;51.476;7.210;2022-07-23T05:01:25;17.70;91.10
11423;DHT22;5768;51.476;7.210;2022-07-23T05:04:27;17.70;89.90
11423;DHT22;5768;51.476;7.210;2022-07-23T05:07:29;17.80;90.20
11423;DHT22;5768;51.476;7.210;2022-07-23T05:10:31;17.80;88.30
11423;DHT22;5768;51.476;7.210;2022-07-23T05:13:35;17.90;86.10
11423;DHT22;5768;51.476;7.210;2022-07-23T05:16:37;18.00;86.50
11423;DHT22;5768;51.476;7.210;2022-07-23T05:19:39;18.00;85.50
11423;DHT22;5768;51.476;7.210;2022-07-23T05:22:42;18.10;85.20
11423;DHT22;5768;51.476;7.210;2022-07-23T05:25:44;18.20;85.20
11423;DHT22;5768;51.476;7.210;2022-07-23T05:28:47;18.20;84.70
11423;DHT22;5768;51.476;7.210;2022-07-23T05:31:50;18.30;85.20
11423;DHT22;5768;51.476;7.210;2022-07-23T05:34:52;18.30;84.40
11423;DHT22;5768;51.476;7.210;2022-07-23T05:37:54;18.30;85.10
11423;DHT22;5768;51.476;7.210;2022-07-23T05:40:56;18.30;83.50
11423;DHT22;5768;51.476;7.210;2022-07-23T05:43:59;18.30;83.10
11423;DHT22;5768;51.476;7.210;2022-07-23T05:47:05;18.20;82.80
11423;DHT22;5768;51.476;7.210;2022-07-23T05:50:07;18.30;82.80
11423;DHT22;5768;51.476;7.210;2022-07-23T05:53:10;18.30;82.50
11423;DHT22;5768;51.476;7.210;2022-07-23T05:56:12;18.40;81.50
11423;DHT22;5768;51.476;7.210;2022-07-23T05:59:16;18.50;33.40
11423;DHT22;5768;51.476;7.210;2022-07-23T06:02:18;18.50;31.20
11423;DHT22;5768;51.476;7.210;2022-07-23T06:05:20;18.70;29.90
11423;DHT22;5768;51.476;7.210;2022-07-23T06:08:22;18.80;81.70
11423;DHT22;5768;51.476;7.210;2022-07-23T06:11:24;18.80;37.00
11423;DHT22;5768;51.476;7.210;2022-07-23T06:14:28;18.80;32.40
11423;DHT22;5768;51.476;7.210;2022-07-23T06:17:30;18.90;82.00
11423;DHT22;5768;51.476;7.210;2022-07-23T06:20:33;18.80;81.80
11423;DHT22;5768;51.476;7.210;2022-07-23T06:23:35;18.90;31.60
11423;DHT22;5768;51.476;7.210;2022-07-23T06:26:37;18.90;29.00
11423;DHT22;5768;51.476;7.210;2022-07-23T06:29:41;19.10;29.50
11423;DHT22;5768;51.476;7.210;2022-07-23T06:32:43;19.30;27.80
11423;DHT22;5768;51.476;7.210;2022-07-23T06:35:45;19.40;28.00
11423;DHT22;5768;51.476;7.210;2022-07-23T06:38:47;19.40;27.60
11423;DHT22;5768;51.476;7.210;2022-07-23T06:41:50;19.40;28.40
11423;DHT22;5768;51.476;7.210;2022-07-23T06:44:54;19.40;28.10
11423;DHT22;5768;51.476;7.210;2022-07-23T06:47:58;19.60;27.10
11423;DHT22;5768;51.476;7.210;2022-07-23T06:51:00;19.60;26.60
11423;DHT22;5768;51.476;7.210;2022-07-23T06:54:02;19.80;26.90
11423;DHT22;5768;51.476;7.210;2022-07-23T06:57:05;19.70;26.40
11423;DHT22;5768;51.476;7.210;2022-07-23T07:00:10;19.80;26.00
11423;DHT22;5768;51.476;7.210;2022-07-23T07:03:13;20.10;25.80
11423;DHT22;5768;51.476;7.210;2022-07-23T07:06:15;20.70;24.70
11423;DHT22;5768;51.476;7.210;2022-07-23T07:09:20;20.90;23.20
11423;DHT22;5768;51.476;7.210;2022-07-23T07:12:22;20.50;23.40
11423;DHT22;5768;51.476;7.210;2022-07-23T07:15:26;20.30;24.60
11423;DHT22;5768;51.476;7.210;2022-07-23T07:18:28;20.40;24.20
11423;DHT22;5768;51.476;7.210;2022-07-23T07:21:31;20.50;23.30
11423;DHT22;5768;51.476;7.210;2022-07-23T07:24:36;20.70;22.70
11423;DHT22;5768;51.476;7.210;2022-07-23T07:27:38;20.80;23.50
11423;DHT22;5768;51.476;7.210;2022-07-23T07:30:42;21.20;22.40
11423;DHT22;5768;51.476;7.210;2022-07-23T07:33:44;21.40;21.50
11423;DHT22;5768;51.476;7.210;2022-07-23T07:36:46;21.90;20.90
11423;DHT22;5768;51.476;7.210;2022-07-23T07:39:48;22.20;20.40
11423;DHT22;5768;51.476;7.210;2022-07-23T07:42:52;22.00;19.90
11423;DHT22;5768;51.476;7.210;2022-07-23T07:45:58;21.80;20.50
11423;DHT22;5768;51.476;7.210;2022-07-23T07:49:00;21.30;22.40
11423;DHT22;5768;51.476;7.210;2022-07-23T07:52:03;21.20;22.70
11423;DHT22;5768;51.476;7.210;2022-07-23T07:55:08;21.20;22.60
11423;DHT22;5768;51.476;7.210;2022-07-23T07:58:11;21.60;20.30
11423;DHT22;5768;51.476;7.210;2022-07-23T08:01:14;21.70;19.40
11423;DHT22;5768;51.476;7.210;2022-07-23T08:04:17;21.90;18.50
11423;DHT22;5768;51.476;7.210;2022-07-23T08:07:20;21.90;18.70
11423;DHT22;5768;51.476;7.210;2022-07-23T08:10:22;21.60;18.70
11423;DHT22;5768;51.476;7.210;2022-07-23T08:13:24;21.40;19.00
11423;DHT22;5768;51.476;7.210;2022-07-23T08:16:28;21.70;18.30
11423;DHT22;5768;51.476;7.210;2022-07-23T08:19:30;21.90;18.60
11423;DHT22;5768;51.476;7.210;2022-07-23T08:22:43;22.00;18.10
11423;DHT22;5768;51.476;7.210;2022-07-23T08:25:46;21.40;18.00
11423;DHT22;5768;51.476;7.210;2022-07-23T08:28:49;21.50;17.40
11423;DHT22;5768;51.476;7.210;2022-07-23T08:31:52;21.70;17.10
11423;DHT22;5768;51.476;7.210;2022-07-23T08:34:55;22.10;17.20
11423;DHT22;5768;51.476;7.210;2022-07-23T08:37:58;22.20;17.50
11423;DHT22;5768;51.476;7.210;2022-07-23T08:41:02;22.60;17.30
11423;DHT22;5768;51.476;7.210;2022-07-23T08:44:07;22.60;16.90
11423;DHT22;5768;51.476;7.210;2022-07-23T08:47:11;22.70;16.30
11423;DHT22;5768;51.476;7.210;2022-07-23T08:50:13;22.80;16.40
11423;DHT22;5768;51.476;7.210;2022-07-23T08:53:20;22.60;16.10
11423;DHT22;5768;51.476;7.210;2022-07-23T08:56:36;22.50;16.10
11423;DHT22;5768;51.476;7.210;2022-07-23T08:59:38;22.40;16.40
11423;DHT22;5768;51.476;7.210;2022-07-23T09:02:43;22.30;16.50
11423;DHT22;5768;51.476;7.210;2022-07-23T09:05:47;22.30;16.50
11423;DHT22;5768;51.476;7.210;2022-07-23T09:08:51;22.10;16.70
11423;DHT22;5768;51.476;7.210;2022-07-23T09:12:02;22.30;16.70
11423;DHT22;5768;51.476;7.210;2022-07-23T09:15:06;22.40;16.40
11423;DHT22;5768;51.476;7.210;2022-07-23T09:18:15;22.10;15.90
11423;DHT22;5768;51.476;7.210;2022-07-23T09:21:20;22.40;16.10
11423;DHT22;5768;51.476;7.210;2022-07-23T09:24:24;22.90;15.80
11423;DHT22;5768;51.476;7.210;2022-07-23T09:27:46;23.20;15.70
11423;DHT22;5768;51.476;7.210;2022-07-23T09:30:54;23.00;15.50
11423;DHT22;5768;51.476;7.210;2022-07-23T09:34:22;23.30;15.40
11423;DHT22;5768;51.476;7.210;2022-07-23T09:38:06;23.40;15.60
11423;DHT22;5768;51.476;7.210;2022-07-23T09:41:09;23.30;15.50
11423;DHT22;5768;51.476;7.210;2022-07-23T09:44:15;23.30;15.40
11423;DHT22;5768;51.476;7.210;2022-07-23T09:47:19;23.70;15.20
11423;DHT22;5768;51.476;7.210;2022-07-23T09:50:23;23.80;15.10
11423;DHT22;5768;51.476;7.210;2022-07-23T09:53:25;24.00;15.10
11423;DHT22;5768;51.476;7.210;2022-07-23T09:56:28;23.40;15.00
11423;DHT22;5768;51.476;7.210;2022-07-23T09:59:33;23.30;15.50
11423;DHT22;5768;51.476;7.210;2022-07-23T10:02:36;23.10;15.40
11423;DHT22;5768;51.476;7.210;2022-07-23T10:05:41;22.70;15.20
11423;DHT22;5768;51.476;7.210;2022-07-23T10:08:46;23.10;14.90
11423;DHT22;5768;51.476;7.210;2022-07-23T10:11:50;23.20;14.80
11423;DHT22;5768;51.476;7.210;2022-07-23T10:14:57;23.00;15.40
11423;DHT22;5768;51.476;7.210;2022-07-23T10:17:59;23.10;15.10
11423;DHT22;5768;51.476;7.210;2022-07-23T10:21:06;23.00;14.90
11423;DHT22;5768;51.476;7.210;2022-07-23T10:24:18;23.30;15.60
11423;DHT22;5768;51.476;7.210;2022-07-23T10:28:05;22.90;15.10
11423;DHT22;5768;51.476;7.210;2022-07-23T10:31:20;23.00;15.30
11423;DHT22;5768;51.476;7.210;2022-07-23T10:34:40;23.40;15.20
11423;DHT22;5768;51.476;7.210;2022-07-23T10:37:49;23.70;15.00
11423;DHT22;5768;51.476;7.210;2022-07-23T10:40:57;23.70;14.80
11423;DHT22;5768;51.476;7.210;2022-07-23T10:44:11;23.60;14.70
11423;DHT22;5768;51.476;7.210;2022-07-23T10:47:27;23.50;15.00
11423;DHT22;5768;51.476;7.210;2022-07-23T10:50:43;23.60;14.50
11423;DHT22;5768;51.476;7.210;2022-07-23T10:53:58;24.00;14.40
11423;DHT22;5768;51.476;7.210;2022-07-23T10:57:08;24.10;14.30
11423;DHT22;5768;51.476;7.210;2022-07-23T11:00:25;24.40;14.40
11423;DHT22;5768;51.476;7.210;2022-07-23T11:03:34;24.50;14.40
11423;DHT22;5768;51.476;7.210;2022-07-23T11:07:06;24.70;14.30
11423;DHT22;5768;51.476;7.210;2022-07-23T11:10:32;24.80;14.20
11423;DHT22;5768;51.476;7.210;2022-07-23T11:13:38;24.90;14.10
11423;DHT22;5768;51.476;7.210;2022-07-23T11:16:47;24.60;14.30
11423;DHT22;5768;51.476;7.210;2022-07-23T11:20:16;24.70;13.90
11423;DHT22;5768;51.476;7.210;2022-07-23T11:23:19;25.10;13.60
11423;DHT22;5768;51.476;7.210;2022-07-23T11:26:44;25.20;13.60
11423;DHT22;5768;51.476;7.210;2022-07-23T11:29:48;25.30;13.70
11423;DHT22;5768;51.476;7.210;2022-07-23T11:32:52;25.30;13.80
11423;DHT22;5768;51.476;7.210;2022-07-23T11:36:04;25.50;14.10
11423;DHT22;5768;51.476;7.210;2022-07-23T11:39:07;25.60;13.80
11423;DHT22;5768;51.476;7.210;2022-07-23T11:42:17;25.50;13.60
11423;DHT22;5768;51.476;7.210;2022-07-23T11:45:20;25.00;13.90
11423;DHT22;5768;51.476;7.210;2022-07-23T11:48:25;25.10;14.00
11423;DHT22;5768;51.476;7.210;2022-07-23T11:51:28;25.10;14.10
11423;DHT22;5768;51.476;7.210;2022-07-23T11:54:33;24.80;13.60
11423;DHT22;5768;51.476;7.210;2022-07-23T11:57:39;24.70;13.70
11423;DHT22;5768;51.476;7.210;2022-07-23T12:00:42;24.80;13.70
11423;DHT22;5768;51.476;7.210;2022-07-23T12:03:49;24.90;13.60
11423;DHT22;5768;51.476;7.210;2022-07-23T12:06:52;24.50;13.20
11423;DHT22;5768;51.476;7.210;2022-07-23T12:09:55;24.70;13.20
11423;DHT22;5768;51.476;7.210;2022-07-23T12:13:02;25.20;13.20
11423;DHT22;5768;51.476;7.210;2022-07-23T12:16:06;25.60;13.30
11423;DHT22;5768;51.476;7.210;2022-07-23T12:19:09;25.70;13.20
11423;DHT22;5768;51.476;7.210;2022-07-23T12:22:12;25.50;13.10
11423;DHT22;5768;51.476;7.210;2022-07-23T12:25:16;25.70;13.30
11423;DHT22;5768;51.476;7.210;2022-07-23T12:28:26;25.90;13.40
11423;DHT22;5768;51.476;7.210;2022-07-23T12:31:29;26.30;13.10
11423;DHT22;5768;51.476;7.210;2022-07-23T12:34:32;27.10;12.60
11423;DHT22;5768;51.476;7.210;2022-07-23T12:37:36;27.50;12.40
11423;DHT22;5768;51.476;7.210;2022-07-23T12:40:43;27.90;12.10
11423;DHT22;5768;51.476;7.210;2022-07-23T12:43:48;28.40;12.00
11423;DHT22;5768;51.476;7.210;2022-07-23T12:46:51;28.80;11.80
11423;DHT22;5768;51.476;7.210;2022-07-23T12:49:54;29.40;11.60
11423;DHT22;5768;51.476;7.210;2022-07-23T12:53:03;29.70;11.40
11423;DHT22;5768;51.476;7.210;2022-07-23T12:56:08;30.30;11.10
11423;DHT22;5768;51.476;7.210;2022-07-23T12:59:14;32.10;10.90
11423;DHT22;5768;51.476;7.210;2022-07-23T13:02:17;32.60;10.60
11423;DHT22;5768;51.476;7.210;2022-07-23T13:05:19;33.80;10.40
11423;DHT22;5768;51.476;7.210;2022-07-23T13:08:22;33.70;10.40
11423;DHT22;5768;51.476;7.210;2022-07-23T13:11:25;32.70;10.40
11423;DHT22;5768;51.476;7.210;2022-07-23T13:14:29;34.00;10.30
11423;DHT22;5768;51.476;7.210;2022-07-23T13:17:31;33.90;10.00
11423;DHT22;5768;51.476;7.210;2022-07-23T13:20:33;34.70;10.20
11423;DHT22;5768;51.476;7.210;2022-07-23T13:23:35;35.90;10.40
11423;DHT22;5768;51.476;7.210;2022-07-23T13:26:38;36.20;10.70
11423;DHT22;5768;51.476;7.210;2022-07-23T13:29:42;34.60;11.40
11423;DHT22;5768;51.476;7.210;2022-07-23T13:32:44;34.90;11.30
11423;DHT22;5768;51.476;7.210;2022-07-23T13:35:46;34.30;11.80
11423;DHT22;5768;51.476;7.210;2022-07-23T13:38:50;38.10;11.70
11423;DHT22;5768;51.476;7.210;2022-07-23T13:41:53;38.10;11.70
11423;DHT22;5768;51.476;7.210;2022-07-23T13:44:56;38.90;13.00
11423;DHT22;5768;51.476;7.210;2022-07-23T13:47:59;38.60;12.50
11423;DHT22;5768;51.476;7.210;2022-07-23T13:51:01;40.30;12.60
11423;DHT22;5768;51.476;7.210;2022-07-23T13:54:03;42.20;12.50
11423;DHT22;5768;51.476;7.210;2022-07-23T13:57:06;42.40;11.60
11423;DHT22;5768;51.476;7.210;2022-07-23T14:00:12;42.40;11.40
11423;DHT22;5768;51.476;7.210;2022-07-23T14:03:15;42.50;9.80
11423;DHT22;5768;51.476;7.210;2022-07-23T14:06:18;43.00;9.70
11423;DHT22;5768;51.476;7.210;2022-07-23T14:09:20;42.20;9.00
11423;DHT22;5768;51.476;7.210;2022-07-23T14:12:23;43.80;8.90
11423;DHT22;5768;51.476;7.210;2022-07-23T14:15:28;46.20;9.40
11423;DHT22;5768;51.476;7.210;2022-07-23T14:18:31;48.00;9.00
11423;DHT22;5768;51.476;7.210;2022-07-23T14:21:33;47.70;9.10
11423;DHT22;5768;51.476;7.210;2022-07-23T14:24:40;45.90;9.30
11423;DHT22;5768;51.476;7.210;2022-07-23T14:30:47;44.20;10.40
11423;DHT22;5768;51.476;7.210;2022-07-23T14:33:50;44.60;10.70
11423;DHT22;5768;51.476;7.210;2022-07-23T14:36:52;45.70;10.30
11423;DHT22;5768;51.476;7.210;2022-07-23T14:39:54;44.00;8.70
11423;DHT22;5768;51.476;7.210;2022-07-23T14:42:56;42.10;11.30
11423;DHT22;5768;51.476;7.210;2022-07-23T14:46:00;41.50;11.40
11423;DHT22;5768;51.476;7.210;2022-07-23T14:49:03;40.70;11.40
11423;DHT22;5768;51.476;7.210;2022-07-23T14:52:05;42.90;9.60
11423;DHT22;5768;51.476;7.210;2022-07-23T14:55:08;41.30;9.00
11423;DHT22;5768;51.476;7.210;2022-07-23T14:58:10;38.80;9.20
11423;DHT22;5768;51.476;7.210;2022-07-23T15:01:14;39.80;9.40
11423;DHT22;5768;51.476;7.210;2022-07-23T15:04:16;37.90;9.50
11423;DHT22;5768;51.476;7.210;2022-07-23T15:07:18;40.50;9.40
11423;DHT22;5768;51.476;7.210;2022-07-23T15:10:21;42.60;11.10
11423;DHT22;5768;51.476;7.210;2022-07-23T15:13:23;41.50;11.20
11423;DHT22;5768;51.476;7.210;2022-07-23T15:16:27;44.30;8.90
11423;DHT22;5768;51.476;7.210;2022-07-23T15:19:29;45.60;8.70
11423;DHT22;5768;51.476;7.210;2022-07-23T15:22:31;46.20;8.70
11423;DHT22;5768;51.476;7.210;2022-07-23T15:25:34;45.60;9.70
11423;DHT22;5768;51.476;7.210;2022-07-23T15:28:36;45.90;10.20
11423;DHT22;5768;51.476;7.210;2022-07-23T15:31:40;48.00;9.60
11423;DHT22;5768;51.476;7.210;2022-07-23T15:34:42;44.70;10.10
11423;DHT22;5768;51.476;7.210;2022-07-23T15:37:44;41.80;10.60
11423;DHT22;5768;51.476;7.210;2022-07-23T15:40:46;39.50;10.90
11423;DHT22;5768;51.476;7.210;2022-07-23T15:43:49;40.80;9.80
11423;DHT22;5768;51.476;7.210;2022-07-23T15:46:53;43.20;8.40
11423;DHT22;5768;51.476;7.210;2022-07-23T15:49:55;45.20;8.00
11423;DHT22;5768;51.476;7.210;2022-07-23T15:52:58;43.80;8.00
11423;DHT22;5768;51.476;7.210;2022-07-23T15:56:00;42.80;8.30
11423;DHT22;5768;51.476;7.210;2022-07-23T15:59:04;42.40;10.70
11423;DHT22;5768;51.476;7.210;2022-07-23T16:02:07;42.70;10.60
11423;DHT22;5768;51.476;7.210;2022-07-23T16:05:09;40.80;10.40
11423;DHT22;5768;51.476;7.210;2022-07-23T16:08:29;39.60;8.80
11423;DHT22;5768;51.476;7.210;2022-07-23T16:11:32;38.80;8.80
11423;DHT22;5768;51.476;7.210;2022-07-23T16:14:34;36.50;9.60
11423;DHT22;5768;51.476;7.210;2022-07-23T16:17:37;33.80;11.70
11423;DHT22;5768;51.476;7.210;2022-07-23T16:20:40;32.80;10.70
11423;DHT22;5768;51.476;7.210;2022-07-23T16:23:42;32.50;10.10
11423;DHT22;5768;51.476;7.210;2022-07-23T16:26:45;31.60;10.30
11423;DHT22;5768;51.476;7.210;2022-07-23T16:29:47;31.20;10.40
11423;DHT22;5768;51.476;7.210;2022-07-23T16:32:51;32.10;10.30
11423;DHT22;5768;51.476;7.210;2022-07-23T16:35:53;32.20;10.30
11423;DHT22;5768;51.476;7.210;2022-07-23T16:38:55;34.70;10.30
11423;DHT22;5768;51.476;7.210;2022-07-23T16:41:58;35.30;12.00
11423;DHT22;5768;51.476;7.210;2022-07-23T16:45:02;35.60;10.50
11423;DHT22;5768;51.476;7.210;2022-07-23T16:48:07;35.40;9.70
11423;DHT22;5768;51.476;7.210;2022-07-23T16:51:09;34.40;9.80
11423;DHT22;5768;51.476;7.210;2022-07-23T16:54:11;33.40;9.90
11423;DHT22;5768;51.476;7.210;2022-07-23T16:57:15;33.80;10.00
11423;DHT22;5768;51.476;7.210;2022-07-23T17:00:17;36.80;9.80
11423;DHT22;5768;51.476;7.210;2022-07-23T17:03:21;39.10;11.80
11423;DHT22;5768;51.476;7.210;2022-07-23T17:06:25;39.60;10.30
11423;DHT22;5768;51.476;7.210;2022-07-23T17:09:27;39.60;9.20
11423;DHT22;5768;51.476;7.210;2022-07-23T17:12:30;40.80;9.00
11423;DHT22;5768;51.476;7.210;2022-07-23T17:15:32;42.60;9.20
11423;DHT22;5768;51.476;7.210;2022-07-23T17:18:37;43.20;10.70
11423;DHT22;5768;51.476;7.210;2022-07-23T17:21:39;42.00;10.80
11423;DHT22;5768;51.476;7.210;2022-07-23T17:24:41;43.30;10.00
11423;DHT22;5768;51.476;7.210;2022-07-23T17:27:44;44.20;8.40
11423;DHT22;5768;51.476;7.210;2022-07-23T17:30:47;44.30;8.80
11423;DHT22;5768;51.476;7.210;2022-07-23T17:33:51;44.50;10.40
11423;DHT22;5768;51.476;7.210;2022-07-23T17:36:53;45.10;10.30
11423;DHT22;5768;51.476;7.210;2022-07-23T17:39:55;44.80;10.20
11423;DHT22;5768;51.476;7.210;2022-07-23T17:43:01;43.60;9.30
11423;DHT22;5768;51.476;7.210;2022-07-23T17:46:04;43.20;8.40
11423;DHT22;5768;51.476;7.210;2022-07-23T17:49:08;42.60;8.40
11423;DHT22;5768;51.476;7.210;2022-07-23T17:52:11;43.40;8.70
11423;DHT22;5768;51.476;7.210;2022-07-23T17:55:14;43.50;10.50
11423;DHT22;5768;51.476;7.210;2022-07-23T17:58:16;43.60;10.30
11423;DHT22;5768;51.476;7.210;2022-07-23T18:01:20;42.90;10.50
11423;DHT22;5768;51.476;7.210;2022-07-23T18:04:34;41.70;10.70
11423;DHT22;5768;51.476;7.210;2022-07-23T18:07:37;39.60;9.10
11423;DHT22;5768;51.476;7.210;2022-07-23T18:10:40;40.30;8.70
11423;DHT22;5768;51.476;7.210;2022-07-23T18:13:42;40.80;8.50
11423;DHT22;5768;51.476;7.210;2022-07-23T18:16:45;40.80;8.50
11423;DHT22;5768;51.476;7.210;2022-07-23T18:19:48;41.30;8.80
11423;DHT22;5768;51.476;7.210;2022-07-23T18:23:02;40.60;9.20
11423;DHT22;5768;51.476;7.210;2022-07-23T18:26:05;40.50;8.90
11423;DHT22;5768;51.476;7.210;2022-07-23T18:29:07;39.20;9.10
11423;DHT22;5768;51.476;7.210;2022-07-23T18:32:09;38.00;9.70
11423;DHT22;5768;51.476;7.210;2022-07-23T18:35:13;37.50;11.40
11423;DHT22;5768;51.476;7.210;2022-07-23T18:38:16;37.90;11.40
11423;DHT22;5768;51.476;7.210;2022-07-23T18:41:18;37.30;9.80
11423;DHT22;5768;51.476;7.210;2022-07-23T18:44:20;37.10;9.80
11423;DHT22;5768;51.476;7.210;2022-07-23T18:47:22;37.10;9.70
11423;DHT22;5768;51.476;7.210;2022-07-23T18:50:26;36.70;9.90
11423;DHT22;5768;51.476;7.210;2022-07-23T18:53:28;36.00;10.10
11423;DHT22;5768;51.476;7.210;2022-07-23T18:56:30;35.40;9.30
11423;DHT22;5768;51.476;7.210;2022-07-23T18:59:33;34.60;9.30
11423;DHT22;5768;51.476;7.210;2022-07-23T19:02:35;34.10;9.50
11423;DHT22;5768;51.476;7.210;2022-07-23T19:05:39;33.70;9.60
11423;DHT22;5768;51.476;7.210;2022-07-23T19:08:41;33.20;10.40
11423;DHT22;5768;51.476;7.210;2022-07-23T19:11:43;32.60;10.20
11423;DHT22;5768;51.476;7.210;2022-07-23T19:14:45;31.50;10.30
11423;DHT22;5768;51.476;7.210;2022-07-23T19:17:51;30.60;10.60
11423;DHT22;5768;51.476;7.210;2022-07-23T19:20:55;29.80;10.80
11423;DHT22;5768;51.476;7.210;2022-07-23T19:23:57;29.20;11.00
11423;DHT22;5768;51.476;7.210;2022-07-23T19:26:59;28.70;11.20
11423;DHT22;5768;51.476;7.210;2022-07-23T19:30:02;28.20;11.50
11423;DHT22;5768;51.476;7.210;2022-07-23T19:33:05;27.90;11.60
11423;DHT22;5768;51.476;7.210;2022-07-23T19:36:09;27.70;12.30
11423;DHT22;5768;51.476;7.210;2022-07-23T19:39:11;27.90;13.00
11423;DHT22;5768;51.476;7.210;2022-07-23T19:42:13;27.00;13.20
11423;DHT22;5768;51.476;7.210;2022-07-23T19:45:16;26.70;13.20
11423;DHT22;5768;51.476;7.210;2022-07-23T19:48:18;26.40;13.30